Time;durP1;ratioP1;P1;durP2;ratioP2;P2;SDS_P1;SDS_P2;PMS_P1;PMS_P2;Temp;Humidity;BMP_temperature;BMP_pressure;BME280_temperature;BME280_humidity;BME280_pressure;Samples;Min_cycle;Max_cycle;Signal;HPM_P1;HPM_P2
2021/06/29 00:01:07;;;;;;;14.43;11.10;;;17.90;99.90;;;;;;5033166;28;20044;-83
2021/06/29 00:03:34;;;;;;;9.35;8.55;;;17.90;99.90;;;;;;5030276;28;20049;-83
2021/06/29 00:06:00;;;;;;;18.27;10.60;;;17.90;99.90;;;;;;5032713;28;20032;-84
2021/06/29 00:08:26;;;;;;;11.30;8.48;;;17.90;99.90;;;;;;5032498;28;20033;-83
2021/06/29 00:10:52;;;;;;;10.30;8.93;;;17.90;99.90;;;;;;5032934;28;20033;-81
2021/06/29 00:13:21;;;;;;;12.15;10.63;;;18.00;99.90;;;;;;5033304;28;20041;-82
2021/06/29 00:15:48;;;;;;;12.05;10.30;;;18.00;99.90;;;;;;5012160;28;20044;-83
2021/06/29 00:18:14;;;;;;;13.02;11.57;;;18.00;99.90;;;;;;5015456;28;20459;-83
2021/06/29 00:20:41;;;;;;;12.85;11.70;;;18.00;99.90;;;;;;5014080;28;20030;-82
2021/06/29 00:23:07;;;;;;;14.38;12.63;;;17.90;99.90;;;;;;4996473;28;20034;-82
2021/06/29 00:25:33;;;;;;;14.65;12.00;;;18.00;99.90;;;;;;5033318;28;20040;-82
2021/06/29 00:28:00;;;;;;;14.02;12.63;;;18.00;99.90;;;;;;5021436;28;20045;-81
2021/06/29 00:30:26;;;;;;;12.38;11.18;;;18.00;99.90;;;;;;5021231;28;20041;-82
2021/06/29 00:32:52;;;;;;;13.20;12.00;;;18.10;99.90;;;;;;5011169;28;20042;-84
2021/06/29 00:35:19;;;;;;;14.10;12.77;;;18.10;99.90;;;;;;5003837;28;20049;-82
2021/06/29 00:37:45;;;;;;;13.60;12.20;;;18.10;99.90;;;;;;5025685;28;20041;-82
2021/06/29 00:40:12;;;;;;;13.45;11.25;;;18.10;99.90;;;;;;5033423;28;20029;-81
2021/06/29 00:42:40;;;;;;;12.85;11.65;;;18.10;99.90;;;;;;5046232;28;20029;-81
2021/06/29 00:45:09;;;;;;;13.45;12.02;;;18.10;99.90;;;;;;5024265;28;20494;-82
2021/06/29 00:47:36;;;;;;;16.65;12.65;;;18.10;99.90;;;;;;4995674;28;20387;-81
2021/06/29 00:50:04;;;;;;;17.65;13.88;;;18.20;99.90;;;;;;5025257;28;20456;-80
2021/06/29 00:52:31;;;;;;;16.73;14.93;;;18.00;99.90;;;;;;5014706;28;20033;-82
2021/06/29 00:54:57;;;;;;;16.85;15.15;;;18.00;99.90;;;;;;5004720;28;20072;-82
2021/06/29 00:57:23;;;;;;;15.10;13.55;;;18.00;99.90;;;;;;5018388;28;20025;-82
2021/06/29 00:59:50;;;;;;;13.48;12.18;;;18.00;99.90;;;;;;5032622;28;20025;-79
2021/06/29 01:02:16;;;;;;;14.63;12.65;;;18.00;99.90;;;;;;5020431;28;20058;-80
2021/06/29 01:04:43;;;;;;;13.98;12.55;;;18.00;99.90;;;;;;5033894;28;20029;-80
2021/06/29 01:07:12;;;;;;;15.88;12.20;;;18.00;99.90;;;;;;5031888;28;20025;-80
2021/06/29 01:09:38;;;;;;;14.50;12.52;;;17.90;99.90;;;;;;5030280;28;20034;-81
2021/06/29 01:12:07;;;;;;;13.48;12.23;;;17.90;99.90;;;;;;5023463;28;20037;-81
2021/06/29 01:14:33;;;;;;;14.07;12.60;;;17.90;99.90;;;;;;5025953;28;20033;-81
2021/06/29 01:17:02;;;;;;;12.23;11.02;;;17.90;99.90;;;;;;5018192;28;20042;-81
2021/06/29 01:19:39;;;;;;;14.00;12.60;;;17.90;99.90;;;;;;5032326;28;20041;-79
2021/06/29 01:22:07;;;;;;;12.95;11.73;;;17.90;99.90;;;;;;5032023;28;20048;-81
2021/06/29 01:24:35;;;;;;;13.02;11.80;;;17.90;99.90;;;;;;5019113;28;20391;-80
2021/06/29 01:27:19;;;;;;;13.20;11.88;;;17.90;99.90;;;;;;5030688;28;20379;-80
2021/06/29 01:32:21;;;;;;;15.52;12.95;;;17.80;99.90;;;;;;5032269;28;20041;-80
2021/06/29 01:34:48;;;;;;;14.77;12.32;;;17.70;99.90;;;;;;5021176;28;20030;-80
2021/06/29 01:37:16;;;;;;;14.00;12.32;;;17.70;99.90;;;;;;5031589;28;20116;-81
2021/06/29 01:39:49;;;;;;;15.57;13.85;;;17.70;99.90;;;;;;5031767;28;20030;-80
2021/06/29 01:42:15;;;;;;;13.95;12.50;;;17.70;99.90;;;;;;5013066;28;20490;-81
2021/06/29 01:44:42;;;;;;;14.98;13.20;;;17.60;99.90;;;;;;5013281;28;20038;-80
2021/06/29 01:47:11;;;;;;;17.27;13.55;;;17.60;99.90;;;;;;5015556;28;20030;-79
2021/06/29 01:49:37;;;;;;;17.38;15.20;;;17.60;99.90;;;;;;5026917;28;20034;-80
2021/06/29 01:52:04;;;;;;;17.52;15.73;;;17.60;99.90;;;;;;5027976;28;20029;-81
2021/06/29 01:54:30;;;;;;;18.13;16.10;;;17.60;99.90;;;;;;5026138;28;20030;-81
2021/06/29 01:56:56;;;;;;;21.00;17.55;;;17.60;99.90;;;;;;5014034;28;20121;-81
2021/06/29 01:59:23;;;;;;;19.60;17.55;;;17.70;99.90;;;;;;5016553;28;20030;-80
2021/06/29 02:01:49;;;;;;;20.58;18.50;;;17.70;99.90;;;;;;5013955;28;20050;-80
2021/06/29 02:04:15;;;;;;;20.75;18.52;;;17.60;99.90;;;;;;5012088;28;20041;-80
2021/06/29 02:06:42;;;;;;;21.05;18.20;;;17.70;99.90;;;;;;5020175;28;20041;-81
2021/06/29 02:09:09;;;;;;;19.40;17.33;;;17.60;99.90;;;;;;5036009;28;20041;-80
2021/06/29 02:11:37;;;;;;;19.67;17.60;;;17.60;99.90;;;;;;5034750;28;20038;-80
2021/06/29 02:14:05;;;;;;;21.35;19.02;;;17.60;99.90;;;;;;5020746;28;20037;-80
2021/06/29 02:16:32;;;;;;;148.85;49.03;;;17.70;99.90;;;;;;5034782;28;20040;-79
2021/06/29 02:18:58;;;;;;;18.13;16.25;;;17.60;99.90;;;;;;5036114;28;20044;-79
2021/06/29 02:21:24;;;;;;;19.63;15.45;;;17.60;99.90;;;;;;5021093;28;20041;-80
2021/06/29 02:23:51;;;;;;;17.88;15.73;;;17.60;99.90;;;;;;5035477;28;20412;-80
2021/06/29 02:26:18;;;;;;;18.52;15.18;;;17.60;99.90;;;;;;5035839;28;20041;-80
2021/06/29 02:28:44;;;;;;;15.95;14.45;;;17.60;99.90;;;;;;5034737;28;20467;-79
2021/06/29 02:31:10;;;;;;;15.10;12.88;;;17.60;99.90;;;;;;5026906;28;20042;-79
2021/06/29 02:33:37;;;;;;;19.92;17.92;;;17.60;99.90;;;;;;5013966;28;20042;-80
2021/06/29 02:36:04;;;;;;;17.13;15.40;;;17.60;99.90;;;;;;5015465;28;20488;-80
2021/06/29 02:38:30;;;;;;;15.02;13.60;;;17.60;99.90;;;;;;5033546;28;20372;-79
2021/06/29 02:40:56;;;;;;;16.13;14.50;;;17.60;99.90;;;;;;5021312;28;20030;-80
2021/06/29 02:43:22;;;;;;;16.58;13.40;;;17.60;99.90;;;;;;5030987;28;20030;-80
2021/06/29 02:45:48;;;;;;;14.20;12.65;;;17.60;99.90;;;;;;5026294;28;20038;-80
2021/06/29 02:48:15;;;;;;;15.32;13.77;;;17.50;99.90;;;;;;5016127;28;20360;-79
2021/06/29 02:50:41;;;;;;;15.40;13.60;;;17.50;99.90;;;;;;5031419;28;20029;-79
2021/06/29 02:53:07;;;;;;;16.27;12.80;;;17.50;99.90;;;;;;5033951;28;20489;-79
2021/06/29 02:55:34;;;;;;;13.38;11.98;;;17.50;99.90;;;;;;5034269;28;20029;-79
2021/06/29 02:58:00;;;;;;;15.68;12.52;;;17.50;99.90;;;;;;5025891;28;20034;-79
2021/06/29 03:00:26;;;;;;;12.18;10.93;;;17.60;99.90;;;;;;5018432;28;20487;-80
2021/06/29 03:02:52;;;;;;;20.27;12.02;;;17.50;99.90;;;;;;5023430;28;20056;-79
2021/06/29 03:05:18;;;;;;;12.93;11.70;;;17.50;99.90;;;;;;5034356;28;20048;-81
2021/06/29 03:07:45;;;;;;;13.35;12.20;;;17.50;99.90;;;;;;5036997;28;20463;-79
2021/06/29 03:10:12;;;;;;;13.77;12.10;;;17.50;99.90;;;;;;5042554;28;20037;-78
2021/06/29 03:12:38;;;;;;;11.65;10.45;;;17.50;99.90;;;;;;5039478;28;20041;-79
2021/06/29 03:15:06;;;;;;;13.10;11.70;;;17.50;99.90;;;;;;5036970;28;20045;-79
2021/06/29 03:17:33;;;;;;;12.88;11.52;;;17.50;99.90;;;;;;5035284;28;20033;-80
2021/06/29 03:20:02;;;;;;;11.95;10.73;;;17.40;99.90;;;;;;5016998;28;20038;-80
2021/06/29 03:22:29;;;;;;;12.07;10.77;;;17.50;99.90;;;;;;5015781;28;20052;-79
2021/06/29 03:24:55;;;;;;;10.95;9.85;;;17.40;99.90;;;;;;5016371;28;20365;-79
2021/06/29 03:27:21;;;;;;;11.48;9.80;;;17.40;99.90;;;;;;5016988;28;20041;-80
2021/06/29 03:29:47;;;;;;;12.07;10.43;;;17.40;99.90;;;;;;5018457;28;20486;-79
2021/06/29 03:32:14;;;;;;;13.15;10.38;;;17.40;99.90;;;;;;5016883;28;20122;-78
2021/06/29 03:34:40;;;;;;;11.48;10.40;;;17.40;99.90;;;;;;5028468;28;20247;-79
2021/06/29 03:37:07;;;;;;;11.80;10.07;;;17.50;99.90;;;;;;5033888;28;20382;-78
2021/06/29 03:39:34;;;;;;;11.13;9.70;;;17.50;99.90;;;;;;5024659;28;20042;-79
2021/06/29 03:42:01;;;;;;;11.77;9.50;;;17.50;99.90;;;;;;5023741;28;20029;-79
2021/06/29 03:44:27;;;;;;;11.93;10.25;;;17.50;99.90;;;;;;5017584;28;20050;-80
2021/06/29 03:46:53;;;;;;;12.20;10.90;;;17.50;99.90;;;;;;5016893;28;20025;-79
2021/06/29 03:49:20;;;;;;;10.68;9.32;;;17.60;99.90;;;;;;5028060;28;20038;-80
2021/06/29 03:51:46;;;;;;;12.60;10.25;;;17.60;99.90;;;;;;5024854;28;20042;-79
2021/06/29 03:54:12;;;;;;;10.55;9.43;;;17.60;99.90;;;;;;5020365;28;20033;-80
2021/06/29 03:56:38;;;;;;;12.45;8.80;;;17.60;99.90;;;;;;5026488;28;20037;-81
2021/06/29 03:59:08;;;;;;;9.93;8.95;;;17.60;99.90;;;;;;5034199;28;20060;-78
2021/06/29 04:01:35;;;;;;;14.75;9.15;;;17.60;99.90;;;;;;5021303;28;20033;-81
2021/06/29 04:04:02;;;;;;;10.48;7.97;;;17.60;99.90;;;;;;5033908;28;20037;-80
2021/06/29 04:06:31;;;;;;;10.32;9.32;;;17.60;99.90;;;;;;5020009;28;20029;-78
2021/06/29 04:08:59;;;;;;;9.43;8.43;;;17.60;99.90;;;;;;5015251;28;20030;-78
2021/06/29 04:11:27;;;;;;;10.48;8.95;;;17.60;99.90;;;;;;5032205;28;20033;-79
2021/06/29 04:13:54;;;;;;;8.73;7.90;;;17.60;99.90;;;;;;5017717;28;20460;-78
2021/06/29 04:16:21;;;;;;;9.02;8.13;;;17.50;99.90;;;;;;5013858;28;20038;-79
2021/06/29 04:18:47;;;;;;;10.73;8.90;;;17.50;99.90;;;;;;5024525;28;20029;-79
2021/06/29 04:21:14;;;;;;;12.07;8.77;;;17.50;99.90;;;;;;5035221;28;20045;-80
2021/06/29 04:23:44;;;;;;;11.05;9.23;;;17.50;99.90;;;;;;5037534;28;20266;-79
2021/06/29 04:26:18;;;;;;;9.68;8.40;;;17.50;99.90;;;;;;5038402;28;20042;-78
2021/06/29 04:28:46;;;;;;;10.10;9.05;;;17.50;99.90;;;;;;5032343;28;20045;-78
2021/06/29 04:31:13;;;;;;;10.57;9.35;;;17.50;99.90;;;;;;5018586;28;20456;-78
2021/06/29 04:33:40;;;;;;;10.18;9.25;;;17.50;99.90;;;;;;5019239;28;20034;-79
2021/06/29 04:36:06;;;;;;;11.00;9.02;;;17.50;99.90;;;;;;5015927;28;20030;-78
2021/06/29 04:38:32;;;;;;;9.35;8.40;;;17.50;99.90;;;;;;5019314;28;20044;-79
2021/06/29 04:40:58;;;;;;;13.32;9.68;;;17.50;99.90;;;;;;5033954;28;20033;-81
2021/06/29 04:43:25;;;;;;;11.70;9.18;;;17.50;99.90;;;;;;5016147;28;20034;-79
2021/06/29 04:45:51;;;;;;;10.13;8.88;;;17.60;99.90;;;;;;5061709;23;20057;-81
2021/06/29 04:48:17;;;;;;;10.02;8.95;;;17.60;99.90;;;;;;5036715;28;20375;-80
2021/06/29 04:50:45;;;;;;;10.55;9.45;;;17.70;99.90;;;;;;5025733;28;20221;-80
2021/06/29 04:53:11;;;;;;;11.48;8.55;;;17.70;99.90;;;;;;5015452;28;20034;-80
2021/06/29 04:55:38;;;;;;;9.10;8.20;;;17.70;99.90;;;;;;5022212;28;20052;-80
2021/06/29 04:58:04;;;;;;;10.32;8.38;;;17.70;99.90;;;;;;5036135;28;20030;-80
2021/06/29 05:00:30;;;;;;;15.55;8.15;;;17.80;99.90;;;;;;5022303;28;20052;-81
2021/06/29 05:02:57;;;;;;;8.65;7.60;;;17.80;99.90;;;;;;5045769;28;20041;-80
2021/06/29 05:05:23;;;;;;;9.60;7.10;;;17.90;99.90;;;;;;5039431;28;20040;-81
2021/06/29 05:07:54;;;;;;;9.40;6.97;;;17.90;99.90;;;;;;5038490;28;20029;-80
2021/06/29 05:10:20;;;;;;;8.93;7.13;;;17.90;99.90;;;;;;5034035;28;20384;-79
2021/06/29 05:12:48;;;;;;;8.35;7.35;;;18.00;99.90;;;;;;5034828;28;20048;-79
2021/06/29 05:15:15;;;;;;;10.00;6.97;;;18.10;99.90;;;;;;5023538;28;20085;-79
2021/06/29 05:17:41;;;;;;;9.20;6.95;;;18.10;99.90;;;;;;5021387;28;20026;-80
2021/06/29 05:20:08;;;;;;;8.85;7.47;;;18.20;99.90;;;;;;5037089;28;20033;-81
2021/06/29 05:22:34;;;;;;;8.48;7.03;;;18.20;99.90;;;;;;5027415;28;20076;-79
2021/06/29 05:25:02;;;;;;;8.15;6.45;;;18.30;99.90;;;;;;5025863;28;20034;-82
2021/06/29 05:27:29;;;;;;;7.82;6.53;;;18.30;99.90;;;;;;5018597;28;20034;-80
2021/06/29 05:29:56;;;;;;;7.93;6.28;;;18.40;99.90;;;;;;5008994;28;20030;-80
2021/06/29 05:32:23;;;;;;;9.05;6.20;;;18.40;99.90;;;;;;5036865;28;20037;-79
2021/06/29 05:34:49;;;;;;;7.68;5.68;;;18.30;99.90;;;;;;5038469;28;20052;-80
2021/06/29 05:37:16;;;;;;;7.97;6.00;;;18.30;99.90;;;;;;5026844;28;20046;-79
2021/06/29 05:39:42;;;;;;;6.80;5.55;;;18.30;99.90;;;;;;5018703;28;20451;-79
2021/06/29 05:42:08;;;;;;;6.85;5.78;;;18.30;99.90;;;;;;5018097;28;20030;-81
2021/06/29 05:44:34;;;;;;;10.95;6.00;;;18.30;99.90;;;;;;5017386;28;20054;-80
2021/06/29 05:47:05;;;;;;;6.90;6.05;;;18.40;99.90;;;;;;5030021;28;20458;-80
2021/06/29 05:49:31;;;;;;;7.93;6.43;;;18.40;99.90;;;;;;5016897;28;20042;-82
2021/06/29 05:51:57;;;;;;;10.27;6.70;;;18.50;99.90;;;;;;5017117;28;20038;-83
2021/06/29 05:54:24;;;;;;;9.38;6.03;;;18.60;99.90;;;;;;5024985;28;20034;-83
2021/06/29 05:56:50;;;;;;;6.05;5.45;;;18.70;99.90;;;;;;5036643;28;20379;-82
2021/06/29 05:59:16;;;;;;;6.75;5.35;;;18.70;99.90;;;;;;5036278;28;20029;-84
2021/06/29 06:01:42;;;;;;;6.68;6.05;;;18.70;99.90;;;;;;5022948;28;20037;-81
2021/06/29 06:04:08;;;;;;;7.40;6.03;;;18.70;99.90;;;;;;5030077;28;20048;-82
2021/06/29 06:06:35;;;;;;;8.00;6.57;;;18.70;99.90;;;;;;5029072;28;20482;-83
2021/06/29 06:09:01;;;;;;;8.18;6.90;;;18.80;99.90;;;;;;5016769;28;20030;-82
2021/06/29 06:11:27;;;;;;;9.70;6.10;;;19.00;99.90;;;;;;5016700;28;20038;-81
2021/06/29 06:13:53;;;;;;;9.63;6.22;;;19.10;99.90;;;;;;5016795;28;20376;-81
2021/06/29 06:16:20;;;;;;;7.63;5.70;;;19.00;99.90;;;;;;5016613;28;20026;-81
2021/06/29 06:18:46;;;;;;;8.88;5.57;;;19.10;99.90;;;;;;5033217;28;20030;-83
2021/06/29 06:21:12;;;;;;;6.68;5.45;;;19.20;99.90;;;;;;5026738;28;20026;-78
2021/06/29 06:23:39;;;;;;;5.53;4.93;;;19.30;99.90;;;;;;5027476;28;20036;-79
2021/06/29 06:26:05;;;;;;;5.82;5.22;;;19.30;99.90;;;;;;5027389;28;20034;-79
2021/06/29 06:28:32;;;;;;;6.38;5.68;;;19.20;99.90;;;;;;5022196;28;20360;-79
2021/06/29 06:30:58;;;;;;;10.13;5.40;;;19.50;99.90;;;;;;5035330;28;20026;-78
2021/06/29 06:33:24;;;;;;;7.53;5.13;;;19.70;99.90;;;;;;5029033;28;20026;-79
2021/06/29 06:35:50;;;;;;;7.70;5.25;;;19.70;99.90;;;;;;5017904;28;20111;-79
2021/06/29 06:38:17;;;;;;;7.00;5.47;;;19.80;99.90;;;;;;5035547;28;20033;-79
2021/06/29 06:40:43;;;;;;;9.00;4.55;;;19.90;99.90;;;;;;5021139;28;20033;-79
2021/06/29 06:43:10;;;;;;;6.05;4.80;;;20.10;99.90;;;;;;5031109;28;20042;-78
2021/06/29 06:45:37;;;;;;;7.20;3.97;;;20.20;99.90;;;;;;5014602;28;20057;-78
2021/06/29 06:48:04;;;;;;;6.15;4.72;;;20.30;99.90;;;;;;5036174;28;20034;-78
2021/06/29 06:50:31;;;;;;;5.40;3.97;;;20.40;99.90;;;;;;5035296;28;20041;-79
2021/06/29 06:52:57;;;;;;;6.20;4.38;;;20.60;99.90;;;;;;5034546;28;20038;-79
2021/06/29 06:55:26;;;;;;;5.03;4.22;;;20.80;99.90;;;;;;5028280;28;20038;-77
2021/06/29 06:57:54;;;;;;;9.50;3.63;;;21.00;99.90;;;;;;5028299;28;20029;-77
2021/06/29 07:00:21;;;;;;;11.35;4.40;;;21.20;99.90;;;;;;5024750;28;20034;-77
2021/06/29 07:02:48;;;;;;;4.65;3.78;;;21.30;99.90;;;;;;5025315;28;20045;-78
2021/06/29 07:05:14;;;;;;;4.95;3.35;;;21.40;99.90;;;;;;5034129;28;20037;-78
2021/06/29 07:07:41;;;;;;;6.03;3.95;;;21.50;99.90;;;;;;5035003;28;20029;-79
2021/06/29 07:10:08;;;;;;;5.18;3.45;;;21.80;99.90;;;;;;5020950;28;20029;-78
2021/06/29 07:12:35;;;;;;;6.45;3.70;;;21.70;99.90;;;;;;5032029;28;20116;-78
2021/06/29 07:15:02;;;;;;;3.95;3.47;;;21.80;99.90;;;;;;5015113;28;20030;-78
2021/06/29 07:17:28;;;;;;;5.93;3.83;;;22.20;99.90;;;;;;5018827;28;20041;-77
2021/06/29 07:19:54;;;;;;;5.43;3.30;;;22.60;99.90;;;;;;5033171;28;20041;-78
2021/06/29 07:22:21;;;;;;;4.95;3.67;;;22.80;99.90;;;;;;5024283;28;20043;-78
2021/06/29 07:24:47;;;;;;;6.72;3.67;;;22.90;99.90;;;;;;5029896;28;20060;-79
2021/06/29 07:27:14;;;;;;;5.05;3.45;;;22.90;99.90;;;;;;5016749;28;20463;-79
2021/06/29 07:29:40;;;;;;;6.90;3.92;;;23.00;99.90;;;;;;5014190;28;20478;-79
2021/06/29 07:32:07;;;;;;;3.97;3.08;;;23.10;99.90;;;;;;5014863;28;20030;-78
2021/06/29 07:34:33;;;;;;;5.28;2.83;;;23.70;99.90;;;;;;5021454;28;20423;-80
2021/06/29 07:37:00;;;;;;;5.30;3.20;;;24.50;99.90;;;;;;5032776;28;20042;-79
2021/06/29 07:39:26;;;;;;;4.43;2.88;;;24.50;99.90;;;;;;5033300;28;20037;-79
2021/06/29 07:41:53;;;;;;;4.68;2.63;;;24.70;99.90;;;;;;5023832;28;20055;-79
2021/06/29 07:44:19;;;;;;;4.63;2.67;;;24.60;99.50;;;;;;5014383;28;20053;-79
2021/06/29 07:46:45;;;;;;;4.47;2.55;;;25.60;99.70;;;;;;5014065;28;20050;-79
2021/06/29 07:49:11;;;;;;;4.43;2.60;;;25.30;98.30;;;;;;5014420;28;20042;-78
2021/06/29 07:51:38;;;;;;;4.55;2.70;;;24.70;98.60;;;;;;5025001;28;20029;-79
2021/06/29 07:54:04;;;;;;;6.13;2.70;;;24.20;99.50;;;;;;5013008;28;20046;-79
2021/06/29 07:56:30;;;;;;;4.03;2.55;;;24.00;99.70;;;;;;5014617;28;20034;-80
2021/06/29 07:58:56;;;;;;;5.68;3.00;;;23.50;99.90;;;;;;4996159;28;20038;-80
2021/06/29 08:01:23;;;;;;;7.05;3.30;;;22.90;99.90;;;;;;5014411;28;20478;-79
2021/06/29 08:03:49;;;;;;;4.93;3.17;;;22.90;99.90;;;;;;5014697;28;20054;-79
2021/06/29 08:06:15;;;;;;;3.58;2.70;;;22.90;99.90;;;;;;5016259;28;20041;-79
2021/06/29 08:08:42;;;;;;;3.88;2.80;;;22.90;99.90;;;;;;5035650;28;20033;-79
2021/06/29 08:11:09;;;;;;;5.28;2.95;;;23.10;99.90;;;;;;5024433;28;20356;-79
2021/06/29 08:13:37;;;;;;;10.75;3.42;;;23.10;99.90;;;;;;5032173;28;20390;-79
2021/06/29 08:16:03;;;;;;;3.72;3.10;;;23.20;99.90;;;;;;5027915;28;20052;-79
2021/06/29 08:18:30;;;;;;;5.30;2.75;;;24.80;99.50;;;;;;5038432;28;20459;-79
2021/06/29 08:20:57;;;;;;;3.35;2.38;;;26.20;96.80;;;;;;5030325;28;20026;-79
2021/06/29 08:23:25;;;;;;;3.08;1.98;;;27.90;93.80;;;;;;5040828;28;20040;-79
2021/06/29 08:25:52;;;;;;;2.95;2.38;;;29.20;91.10;;;;;;5052478;28;20485;-79
2021/06/29 08:28:18;;;;;;;3.33;1.92;;;29.30;87.30;;;;;;5048054;28;20037;-80
2021/06/29 08:30:46;;;;;;;5.15;2.20;;;29.10;83.50;;;;;;5030552;28;20038;-79
2021/06/29 08:33:12;;;;;;;4.57;2.08;;;28.70;80.80;;;;;;5017500;28;20034;-79
2021/06/29 08:35:44;;;;;;;4.88;1.77;;;29.00;78.80;;;;;;5028493;28;20395;-79
2021/06/29 08:38:12;;;;;;;3.40;1.98;;;28.90;82.40;;;;;;5014535;28;20467;-80
2021/06/29 08:40:40;;;;;;;3.73;1.83;;;28.70;79.60;;;;;;5014023;28;20497;-80
2021/06/29 08:43:08;;;;;;;3.83;1.90;;;28.00;77.90;;;;;;5014210;28;20041;-81
2021/06/29 08:45:35;;;;;;;4.35;1.88;;;27.20;79.30;;;;;;5013828;28;20151;-80
2021/06/29 08:48:02;;;;;;;2.50;1.80;;;27.80;77.70;;;;;;5014660;28;20440;-80
2021/06/29 08:50:30;;;;;;;3.40;1.25;;;27.90;79.10;;;;;;5021243;28;20045;-78
2021/06/29 08:52:59;;;;;;;2.13;1.15;;;28.60;75.30;;;;;;5014296;28;20057;-79
2021/06/29 08:55:47;;;;;;;2.70;1.50;;;28.70;76.10;;;;;;5012858;28;20413;-80
2021/06/29 08:58:18;;;;;;;2.58;1.30;;;28.20;73.70;;;;;;5018844;28;20040;-80
2021/06/29 09:00:44;;;;;;;3.55;1.55;;;27.50;73.90;;;;;;5032166;28;20037;-79
2021/06/29 09:03:11;;;;;;;2.70;1.50;;;28.30;73.70;;;;;;5022903;28;20104;-79
2021/06/29 09:05:42;;;;;;;5.57;1.63;;;28.70;72.80;;;;;;5022264;28;20041;-78
2021/06/29 09:08:10;;;;;;;3.20;1.52;;;29.30;69.60;;;;;;5013848;28;20026;-79
2021/06/29 09:10:43;;;;;;;1.60;1.20;;;28.00;70.70;;;;;;5030952;28;20045;-78
2021/06/29 09:13:11;;;;;;;3.63;1.80;;;28.30;69.70;;;;;;5013340;28;20118;-79
2021/06/29 09:15:45;;;;;;;3.80;1.92;;;28.50;68.10;;;;;;5012907;28;20045;-79
2021/06/29 09:18:14;;;;;;;2.22;1.20;;;28.40;69.80;;;;;;5021832;28;20030;-78
2021/06/29 09:20:50;;;;;;;1.77;1.27;;;27.80;68.50;;;;;;5032013;28;20038;-78
2021/06/29 09:23:22;;;;;;;2.65;2.00;;;26.30;74.10;;;;;;5013109;28;20030;-78
2021/06/29 09:25:58;;;;;;;4.13;1.70;;;26.10;73.60;;;;;;5017668;28;20037;-78
2021/06/29 09:28:36;;;;;;;3.58;1.85;;;27.30;74.50;;;;;;5018803;28;20030;-78
2021/06/29 09:31:13;;;;;;;2.22;1.50;;;27.40;70.30;;;;;;5013180;28;20030;-79
2021/06/29 09:33:45;;;;;;;2.63;1.40;;;27.70;67.20;;;;;;5013564;28;20490;-77
2021/06/29 09:36:14;;;;;;;3.83;1.80;;;27.70;68.60;;;;;;5020863;28;20056;-77
2021/06/29 09:38:43;;;;;;;4.60;2.03;;;26.90;70.00;;;;;;5026288;28;20037;-78
2021/06/29 09:41:15;;;;;;;1.95;1.27;;;25.50;72.90;;;;;;5012924;28;20041;-78
2021/06/29 09:43:48;;;;;;;3.28;1.98;;;24.90;76.80;;;;;;5025883;28;20494;-77
2021/06/29 09:46:17;;;;;;;2.85;2.20;;;25.40;75.40;;;;;;4995362;28;20049;-77
2021/06/29 09:48:48;;;;;;;2.47;1.95;;;25.90;72.60;;;;;;5030570;28;20034;-78
2021/06/29 09:51:27;;;;;;;3.20;1.52;;;26.40;72.40;;;;;;5033503;28;20045;-79
2021/06/29 09:53:58;;;;;;;3.88;1.42;;;27.00;72.50;;;;;;5019185;28;20045;-78
2021/06/29 09:56:31;;;;;;;2.15;1.42;;;27.70;69.40;;;;;;5029738;28;20029;-78
2021/06/29 09:58:59;;;;;;;3.95;1.55;;;28.40;69.50;;;;;;5032723;28;20033;-79
2021/06/29 10:01:28;;;;;;;3.08;1.27;;;28.60;67.80;;;;;;5033683;28;20040;-79
2021/06/29 10:03:57;;;;;;;3.33;1.35;;;28.30;65.50;;;;;;5031551;28;20026;-79
2021/06/29 10:06:33;;;;;;;2.07;1.13;;;26.80;68.70;;;;;;5013474;28;20041;-81
2021/06/29 10:09:06;;;;;;;8.30;1.67;;;27.00;68.00;;;;;;5035545;28;20026;-82
2021/06/29 10:11:37;;;;;;;2.05;1.30;;;26.40;69.10;;;;;;5036382;28;20375;-79
2021/06/29 10:14:08;;;;;;;2.22;1.50;;;26.10;70.30;;;;;;5019959;28;20060;-79
2021/06/29 10:16:39;;;;;;;2.53;1.45;;;26.60;69.60;;;;;;5038647;28;20037;-79
2021/06/29 10:21:38;;;;;;;2.83;1.40;;;27.30;71.00;;;;;;5022178;28;20039;-78
2021/06/29 10:24:07;;;;;;;1.65;1.35;;;27.60;68.10;;;;;;5017917;28;20038;-79
2021/06/29 10:26:35;;;;;;;5.93;1.75;;;27.10;67.40;;;;;;5000324;28;20045;-78
2021/06/29 10:29:05;;;;;;;2.70;1.70;;;26.10;69.90;;;;;;5023327;28;20471;-78
2021/06/29 10:31:33;;;;;;;3.28;2.15;;;25.40;70.60;;;;;;5033082;28;20045;-77
2021/06/29 10:34:02;;;;;;;4.68;2.05;;;24.90;73.20;;;;;;5019765;28;20034;-79
2021/06/29 10:36:30;;;;;;;1.92;1.58;;;24.60;73.70;;;;;;5025712;28;20030;-78
2021/06/29 10:38:59;;;;;;;2.70;2.25;;;24.70;74.10;;;;;;5029304;28;20057;-79
2021/06/29 10:41:32;;;;;;;2.47;2.08;;;24.80;73.10;;;;;;5018350;28;20040;-79
2021/06/29 10:43:59;;;;;;;3.30;1.90;;;24.30;74.70;;;;;;5016785;28;20391;-78
2021/06/29 10:46:28;;;;;;;3.90;1.65;;;24.70;75.30;;;;;;5027908;28;20387;-78
2021/06/29 10:49:32;;;;;;;5.30;1.60;;;25.20;74.90;;;;;;5020686;28;20034;-78
2021/06/29 10:52:27;;;;;;;3.63;1.70;;;25.20;72.10;;;;;;5018840;28;20027;-79
2021/06/29 10:55:02;;;;;;;4.80;2.13;;;24.70;72.80;;;;;;5020045;28;20041;-79
2021/06/29 10:57:46;;;;;;;2.55;2.03;;;24.70;73.00;;;;;;5033550;28;20040;-78
2021/06/29 11:00:16;;;;;;;2.63;1.83;;;25.10;73.30;;;;;;5011338;28;20041;-79
2021/06/29 11:02:43;;;;;;;2.45;1.92;;;25.30;71.00;;;;;;5031222;28;20030;-79
2021/06/29 11:05:11;;;;;;;3.28;2.20;;;25.10;72.10;;;;;;5017073;28;20042;-78
2021/06/29 11:07:39;;;;;;;2.10;1.40;;;25.30;71.00;;;;;;5027494;28;20033;-78
2021/06/29 11:10:25;;;;;;;2.58;1.77;;;25.40;71.70;;;;;;5013539;28;20045;-77
2021/06/29 11:12:53;;;;;;;2.88;1.58;;;25.80;71.10;;;;;;5028772;28;20033;-77
2021/06/29 11:15:43;;;;;;;4.22;2.00;;;25.40;71.90;;;;;;5035112;28;20037;-77
2021/06/29 11:18:10;;;;;;;2.00;1.73;;;25.10;72.80;;;;;;5033216;28;20049;-77
2021/06/29 11:20:52;;;;;;;2.90;1.73;;;25.20;73.60;;;;;;5032292;28;20455;-79
2021/06/29 11:23:26;;;;;;;1.92;1.48;;;25.20;71.30;;;;;;5014975;28;20367;-79
2021/06/29 11:26:11;;;;;;;4.65;2.67;;;25.20;72.10;;;;;;5012939;28;20046;-78
2021/06/29 11:28:44;;;;;;;2.13;1.60;;;25.20;72.40;;;;;;5020950;28;20029;-78
2021/06/29 11:31:19;;;;;;;3.08;1.90;;;24.60;73.10;;;;;;5018947;28;20486;-79
2021/06/29 11:33:57;;;;;;;3.42;1.95;;;25.00;74.80;;;;;;5033158;28;20025;-77
2021/06/29 11:36:26;;;;;;;2.60;1.73;;;25.40;73.30;;;;;;5034027;28;20045;-79
2021/06/29 11:38:55;;;;;;;1.45;1.35;;;25.30;73.30;;;;;;5034645;28;20033;-79
2021/06/29 11:41:24;;;;;;;2.90;1.70;;;25.80;74.20;;;;;;5034254;28;20359;-77
2021/06/29 11:43:52;;;;;;;2.42;1.50;;;26.30;74.00;;;;;;5034495;28;20328;-78
2021/06/29 11:47:01;;;;;;;2.80;1.50;;;26.60;75.20;;;;;;5028056;28;20038;-78
2021/06/29 11:49:36;;;;;;;2.67;1.85;;;27.00;68.80;;;;;;5030059;28;20037;-79
2021/06/29 11:52:26;;;;;;;3.97;1.70;;;27.00;67.20;;;;;;5024117;28;20046;-78
2021/06/29 11:55:07;;;;;;;;;;;27.30;67.80;;;;;;5013826;28;20045;-78
2021/06/29 11:57:42;;;;;;;2.20;1.92;;;27.20;63.90;;;;;;5014717;28;20252;-77
2021/06/29 12:00:47;;;;;;;2.33;1.60;;;26.50;66.00;;;;;;5014957;28;20030;-78
2021/06/29 12:03:16;;;;;;;3.28;1.80;;;26.30;67.10;;;;;;4947180;29;20046;-78
2021/06/29 12:05:43;;;;;;;2.35;1.60;;;26.70;68.90;;;;;;4951817;29;20051;-78
2021/06/29 12:08:11;;;;;;;3.72;2.00;;;26.90;68.00;;;;;;4952939;29;20054;-78
2021/06/29 12:10:43;;;;;;;2.88;1.63;;;26.90;66.20;;;;;;4951991;29;20027;-78
2021/06/29 12:13:14;;;;;;;2.42;1.85;;;27.40;66.50;;;;;;4953167;29;20058;-77
2021/06/29 12:15:45;;;;;;;1.60;1.50;;;27.00;65.50;;;;;;4936398;29;20059;-79
2021/06/29 12:18:15;;;;;;;2.10;1.70;;;26.50;66.70;;;;;;4936054;29;20047;-79
2021/06/29 12:21:01;;;;;;;3.78;1.65;;;26.30;66.90;;;;;;4952200;29;20035;-78
2021/06/29 12:23:35;;;;;;;2.53;2.30;;;26.00;67.00;;;;;;4952700;29;20044;-78
2021/06/29 12:26:04;;;;;;;2.20;1.80;;;25.90;67.00;;;;;;4952573;29;20039;-78
2021/06/29 12:28:35;;;;;;;3.22;2.33;;;26.00;67.90;;;;;;4936250;29;20058;-80
2021/06/29 12:31:08;;;;;;;5.65;1.80;;;26.20;66.20;;;;;;4951675;28;20039;-78
2021/06/29 12:33:44;;;;;;;2.75;1.63;;;26.20;65.80;;;;;;4970687;28;20061;-77
2021/06/29 12:36:22;;;;;;;3.65;1.90;;;26.20;65.70;;;;;;5029951;28;20037;-78
2021/06/29 12:39:03;;;;;;;3.38;1.98;;;26.20;66.50;;;;;;5025238;28;20033;-78
2021/06/29 12:41:32;;;;;;;4.57;2.05;;;26.30;67.30;;;;;;5050166;28;20100;-79
2021/06/29 12:44:02;;;;;;;3.55;1.85;;;26.40;66.60;;;;;;5047907;28;20038;-79
2021/06/29 12:46:31;;;;;;;2.50;2.03;;;25.90;64.90;;;;;;5041351;28;20037;-80
2021/06/29 12:49:17;;;;;;;2.25;2.00;;;25.70;66.30;;;;;;5024724;28;20021;-79
2021/06/29 12:51:47;;;;;;;5.15;2.00;;;25.40;66.80;;;;;;5031175;28;20032;-78
2021/06/29 12:54:18;;;;;;;5.85;1.90;;;25.30;67.40;;;;;;5028034;28;20033;-79